Time;durP1;ratioP1;P1;durP2;ratioP2;P2;SDS_P1;SDS_P2;PMS_P1;PMS_P2;Temp;Humidity;BMP_temperature;BMP_pressure;BME280_temperature;BME280_humidity;BME280_pressure;Samples;Min_cycle;Max_cycle;Signal;HPM_P1;HPM_P2
2021/06/05 00:01:27;;;;;;;;;;;;;;;13.93;67.63;99884.86;1748841;82;20995;-70
2021/06/05 00:03:54;;;;;;;10.32;5.00;;;;;;;13.88;67.63;99878.09;1729457;82;20171;-70
2021/06/05 00:06:21;;;;;;;;;;;;;;;13.77;67.91;99871.08;1676053;85;22040;-69
2021/06/05 00:08:48;;;;;;;;;;;;;;;13.77;67.70;99876.01;1689550;84;20114;-70
2021/06/05 00:11:17;;;;;;;10.80;5.30;;;;;;;13.77;67.73;99876.56;1670041;85;20109;-70
2021/06/05 00:13:47;;;;;;;11.08;5.08;;;;;;;13.74;67.92;99875.22;1690369;85;21067;-70
2021/06/05 00:16:19;;;;;;;9.38;5.03;;;;;;;13.72;68.17;99867.02;1711973;84;21619;-70
2021/06/05 00:18:47;;;;;;;11.63;5.53;;;;;;;13.60;68.42;99874.27;1707391;84;21055;-70
2021/06/05 00:21:16;;;;;;;11.33;5.28;;;;;;;13.52;68.66;99871.33;1712077;84;21022;-70
2021/06/05 00:23:42;;;;;;;13.95;5.53;;;;;;;13.49;68.84;99871.91;1690764;84;21093;-70
2021/06/05 00:26:09;;;;;;;;;;;;;;;13.47;68.73;99865.34;1695734;84;21102;-69
2021/06/05 00:28:35;;;;;;;11.97;5.55;;;;;;;13.42;68.65;99864.86;1683732;85;20159;-70
2021/06/05 00:31:02;;;;;;;8.98;5.00;;;;;;;13.26;69.12;99859.24;1661207;85;21671;-69
2021/06/05 00:33:29;;;;;;;11.48;5.30;;;;;;;13.18;69.31;99860.42;1689964;85;21069;-70
2021/06/05 00:35:55;;;;;;;;;;;;;;;13.15;69.23;99866.44;1694703;84;21579;-69
2021/06/05 00:38:21;;;;;;;8.30;4.67;;;;;;;13.19;69.18;99868.87;1683776;85;20132;-69
2021/06/05 00:40:52;;;;;;;9.10;4.95;;;;;;;13.14;69.19;99857.99;1670699;85;21143;-69
2021/06/05 00:43:24;;;;;;;8.40;4.70;;;;;;;13.09;69.41;99860.72;1728324;82;21059;-70
2021/06/05 00:45:50;;;;;;;8.43;4.80;;;;;;;12.98;69.65;99861.34;1726092;82;21633;-70
2021/06/05 00:48:19;;;;;;;9.55;5.00;;;;;;;12.87;69.85;99866.06;1714499;82;21068;-70
2021/06/05 00:50:49;;;;;;;10.70;5.30;;;;;;;12.83;70.07;99866.36;1690930;84;21597;-70
2021/06/05 00:53:16;;;;;;;10.48;4.55;;;;;;;12.83;70.16;99865.00;1679666;84;21050;-69
2021/06/05 00:55:45;;;;;;;9.68;4.05;;;;;;;12.84;70.40;99868.00;1682587;84;21015;-70
2021/06/05 00:58:12;;;;;;;7.80;4.03;;;;;;;12.82;70.37;99866.09;1682068;84;21154;-69
2021/06/05 01:01:00;;;;;;;9.05;4.20;;;;;;;12.76;70.36;99856.84;1646302;85;21063;-69
2021/06/05 01:03:27;;;;;;;;;;;;;;;12.71;70.60;99854.16;1714934;82;21055;-69
2021/06/05 01:05:59;;;;;;;7.40;4.05;;;;;;;12.70;70.56;99855.25;1712823;82;20093;-70
2021/06/05 01:08:44;;;;;;;7.92;4.25;;;;;;;12.65;70.41;99858.82;1710187;82;21515;-69
2021/06/05 01:11:33;;;;;;;7.45;3.95;;;;;;;12.60;70.41;99858.88;1718817;82;21565;-69
2021/06/05 01:14:32;;;;;;;11.47;4.33;;;;;;;12.53;70.55;99856.17;1709743;82;21098;-69
2021/06/05 01:17:07;;;;;;;8.08;4.10;;;;;;;12.43;70.91;99856.48;1712306;82;21777;-70
2021/06/05 01:19:59;;;;;;;5.77;3.53;;;;;;;12.42;70.81;99858.14;1710479;82;20980;-70
2021/06/05 01:23:09;;;;;;;7.20;3.83;;;;;;;12.43;70.12;99861.94;1691940;82;21984;-69
2021/06/05 01:26:21;;;;;;;6.85;3.52;;;;;;;12.38;70.63;99858.44;1716592;82;21597;-69
2021/06/05 01:28:57;;;;;;;6.58;4.10;;;;;;;12.27;70.97;99863.67;1718179;82;21028;-69
2021/06/05 01:31:28;;;;;;;7.22;4.00;;;;;;;12.23;71.26;99860.68;1722523;82;21042;-69
2021/06/05 01:33:55;;;;;;;9.00;4.37;;;;;;;12.25;71.25;99856.33;1642642;86;21074;-69
2021/06/05 01:36:23;;;;;;;8.35;4.28;;;;;;;12.26;71.23;99860.66;1736146;82;21652;-69
2021/06/05 01:38:57;;;;;;;7.80;4.33;;;;;;;12.21;71.20;99853.34;1710676;82;21660;-69
2021/06/05 01:41:26;;;;;;;7.50;4.22;;;;;;;12.20;71.32;99858.52;1692006;84;21078;-69
2021/06/05 01:43:53;;;;;;;7.20;3.80;;;;;;;12.22;71.30;99856.31;1689430;84;21039;-70
2021/06/05 01:46:22;;;;;;;6.92;4.08;;;;;;;12.28;71.11;99849.75;1688223;84;21030;-69
2021/06/05 01:48:52;;;;;;;5.72;3.70;;;;;;;12.36;70.91;99854.61;1713436;82;21091;-69
2021/06/05 01:51:21;;;;;;;7.37;4.22;;;;;;;12.38;70.75;99855.16;1736914;82;20987;-69
2021/06/05 01:53:52;;;;;;;7.10;3.90;;;;;;;12.38;70.72;99853.80;1731206;82;21039;-70
2021/06/05 01:56:40;;;;;;;10.28;4.50;;;;;;;12.39;70.63;99851.34;1719030;82;21035;-69
2021/06/05 01:59:12;;;;;;;8.53;4.17;;;;;;;12.43;70.52;99853.75;1730030;82;21043;-68
2021/06/05 02:01:40;;;;;;;5.70;3.15;;;;;;;12.52;70.15;99847.17;1713615;82;20996;-68
2021/06/05 02:04:08;;;;;;;6.22;3.65;;;;;;;12.54;70.06;99842.23;1714561;82;21079;-69
2021/06/05 02:06:46;;;;;;;8.83;3.87;;;;;;;12.54;69.93;99844.17;1719751;82;20976;-69
2021/06/05 02:09:17;;;;;;;5.90;3.60;;;;;;;12.52;69.87;99849.08;1725977;82;21091;-69
2021/06/05 02:11:48;;;;;;;10.72;3.98;;;;;;;12.57;69.88;99843.05;1659710;86;21027;-69
2021/06/05 02:14:22;;;;;;;8.55;3.65;;;;;;;12.64;69.81;99835.91;1711325;82;21476;-69
2021/06/05 02:16:51;;;;;;;8.25;4.17;;;;;;;12.70;69.67;99843.78;1655411;86;21598;-69
2021/06/05 02:19:26;;;;;;;7.37;3.72;;;;;;;12.68;69.71;99841.87;1724837;82;21022;-69
2021/06/05 02:21:58;;;;;;;10.80;4.00;;;;;;;12.68;69.64;99845.17;1644367;86;21604;-68
2021/06/05 02:24:32;;;;;;;9.78;3.95;;;;;;;12.67;69.24;99843.53;1711681;84;21015;-68
2021/06/05 02:26:59;;;;;;;10.03;3.85;;;;;;;12.74;69.14;99844.86;1712132;82;21019;-70
2021/06/05 02:29:31;;;;;;;7.40;3.30;;;;;;;12.85;68.63;99849.16;1720244;82;21558;-69
2021/06/05 02:31:58;;;;;;;10.18;3.75;;;;;;;12.93;68.22;99840.91;1701166;82;21004;-69
2021/06/05 02:34:28;;;;;;;7.37;3.60;;;;;;;12.97;68.16;99843.31;1739149;81;20984;-68
2021/06/05 02:36:58;;;;;;;10.03;3.83;;;;;;;13.00;67.89;99850.14;1709754;82;22561;-69
2021/06/05 02:39:25;;;;;;;6.92;3.40;;;;;;;13.08;67.65;99844.87;1709758;84;20984;-68
2021/06/05 02:41:54;;;;;;;5.78;3.70;;;;;;;13.21;67.55;99843.45;1718079;82;21067;-69
2021/06/05 02:44:25;;;;;;;6.62;3.60;;;;;;;13.29;67.34;99845.00;1725950;82;21015;-70
2021/06/05 02:46:52;;;;;;;6.92;3.58;;;;;;;13.35;67.26;99847.16;1749898;82;21386;-69
2021/06/05 02:49:25;;;;;;;7.33;4.20;;;;;;;13.42;66.98;99845.72;1709625;82;20991;-70
2021/06/05 02:52:00;;;;;;;7.60;3.70;;;;;;;13.52;66.50;99844.80;1734901;82;21470;-69
2021/06/05 02:54:28;;;;;;;6.10;3.75;;;;;;;13.65;66.42;99846.03;1751311;82;20964;-69
2021/06/05 02:56:56;;;;;;;11.57;3.35;;;;;;;13.77;66.28;99843.17;1726791;82;21476;-69
2021/06/05 02:59:23;;;;;;;6.72;3.95;;;;;;;13.82;66.44;99846.39;1736853;82;21544;-69
2021/06/05 03:01:51;;;;;;;8.40;3.45;;;;;;;13.82;66.79;99847.75;1736441;82;21097;-69
2021/06/05 03:04:19;;;;;;;5.55;3.45;;;;;;;13.82;67.12;99849.13;1722921;83;21078;-69
2021/06/05 03:06:47;;;;;;;6.62;3.22;;;;;;;13.83;67.27;99850.22;1730649;82;21035;-69
2021/06/05 03:09:16;;;;;;;8.35;3.60;;;;;;;14.00;67.43;99848.92;1723140;83;21023;-70
2021/06/05 03:11:46;;;;;;;5.85;3.20;;;;;;;14.25;67.15;99852.19;1726343;82;21042;-69
2021/06/05 03:14:15;;;;;;;8.48;3.67;;;;;;;14.47;66.70;99855.77;1730927;82;21074;-69
2021/06/05 03:16:42;;;;;;;6.40;3.40;;;;;;;14.72;65.89;99851.86;1717891;82;21042;-69
2021/06/05 03:19:09;;;;;;;6.37;3.30;;;;;;;14.99;65.18;99849.25;1752278;82;21566;-69
2021/06/05 03:21:36;;;;;;;8.20;3.33;;;;;;;15.26;64.21;99849.93;1751971;82;21003;-68
2021/06/05 03:24:06;;;;;;;6.70;3.80;;;;;;;15.55;63.10;99846.45;1748808;82;21075;-69
2021/06/05 03:26:35;;;;;;;7.62;3.17;;;;;;;15.79;62.22;99847.09;1717144;82;21550;-69
2021/06/05 03:29:04;;;;;;;8.73;3.33;;;;;;;16.07;61.27;99842.98;1752845;82;21554;-69
2021/06/05 03:31:32;;;;;;;6.75;3.35;;;;;;;16.33;60.40;99841.34;1750119;82;22478;-69
2021/06/05 03:34:00;;;;;;;8.53;3.20;;;;;;;16.57;59.32;99843.88;1738147;81;21569;-69
2021/06/05 03:36:28;;;;;;;6.78;3.10;;;;;;;16.76;58.76;99834.34;1752002;82;21043;-69
2021/06/05 03:38:57;;;;;;;4.72;2.90;;;;;;;16.93;57.85;99836.45;1725939;82;21110;-70
2021/06/05 03:41:25;;;;;;;5.62;2.75;;;;;;;17.09;57.70;99834.95;1654481;84;21707;-70
2021/06/05 03:43:52;;;;;;;4.83;2.70;;;;;;;17.29;57.67;99841.31;1721217;82;21015;-69
2021/06/05 03:46:20;;;;;;;4.97;2.87;;;;;;;17.51;56.93;99842.42;1718889;82;21032;-70
2021/06/05 03:48:46;;;;;;;8.25;3.27;;;;;;;17.70;56.17;99840.30;1710024;82;21549;-70
2021/06/05 03:51:15;;;;;;;7.28;2.77;;;;;;;17.89;54.35;99844.44;1714422;82;21589;-70
2021/06/05 03:53:42;;;;;;;4.45;2.60;;;;;;;18.09;53.45;99838.94;1713112;82;21457;-70
2021/06/05 03:56:09;;;;;;;6.20;2.42;;;;;;;18.33;53.38;99842.66;1731657;82;20996;-70
2021/06/05 03:58:40;;;;;;;7.28;2.40;;;;;;;18.64;51.72;99848.09;1714074;82;21098;-70
2021/06/05 04:01:18;;;;;;;5.97;2.72;;;;;;;18.85;50.63;99840.81;1727419;82;21614;-70
2021/06/05 04:03:44;;;;;;;6.45;2.30;;;;;;;18.92;50.15;99837.59;1719975;82;21016;-70
2021/06/05 04:06:13;;;;;;;5.60;2.42;;;;;;;19.06;50.42;99834.11;1686830;84;21537;-71
2021/06/05 04:08:41;;;;;;;6.40;2.40;;;;;;;19.24;49.33;99839.83;1692026;84;21039;-70
2021/06/05 04:11:08;;;;;;;4.62;2.33;;;;;;;19.28;49.35;99835.28;1675987;84;21066;-70
2021/06/05 04:13:36;;;;;;;4.17;2.65;;;;;;;19.37;48.59;99833.34;1655083;86;21087;-68
2021/06/05 04:16:03;;;;;;;6.05;2.75;;;;;;;19.42;48.39;99832.36;1710995;82;21059;-68
2021/06/05 04:18:35;;;;;;;4.92;2.60;;;;;;;19.26;48.94;99834.24;1730118;82;21044;-68
2021/06/05 04:21:04;;;;;;;8.25;3.10;;;;;;;19.39;48.55;99826.34;1714345;82;20999;-68
2021/06/05 04:23:30;;;;;;;7.87;2.80;;;;;;;19.71;47.89;99829.70;1638484;86;21494;-68
2021/06/05 04:25:56;;;;;;;5.05;2.80;;;;;;;19.81;47.43;99824.63;1727257;82;20975;-68
2021/06/05 04:28:24;;;;;;;6.97;3.30;;;;;;;19.92;47.07;99827.83;1737061;82;21067;-68
2021/06/05 04:30:51;;;;;;;7.25;3.30;;;;;;;19.95;46.32;99824.97;1718362;82;20983;-69
2021/06/05 04:33:21;;;;;;;5.33;2.70;;;;;;;19.81;46.17;99815.52;1717168;82;21063;-70
2021/06/05 04:35:48;;;;;;;8.35;3.10;;;;;;;19.85;47.24;99820.63;1712508;82;21423;-66
2021/06/05 04:38:15;;;;;;;7.45;3.40;;;;;;;19.86;46.67;99823.64;1638782;85;21048;-67
2021/06/05 04:40:42;;;;;;;6.58;3.05;;;;;;;19.81;46.63;99822.42;1718719;82;21423;-67
2021/06/05 04:43:09;;;;;;;6.03;3.15;;;;;;;19.80;46.72;99818.84;1721993;82;21024;-67
2021/06/05 04:45:36;;;;;;;6.83;3.45;;;;;;;19.86;46.79;99820.88;1711703;82;20971;-67
2021/06/05 04:48:03;;;;;;;7.83;2.90;;;;;;;19.98;46.89;99816.83;1710397;82;21092;-67
2021/06/05 04:50:32;;;;;;;11.03;3.50;;;;;;;20.16;45.90;99825.28;1711875;82;21004;-67
2021/06/05 04:52:58;;;;;;;6.25;3.12;;;;;;;20.21;47.00;99816.81;1709396;83;21024;-67
2021/06/05 04:55:25;;;;;;;5.70;2.58;;;;;;;20.38;46.56;99815.11;1709496;84;21491;-67
2021/06/05 04:57:52;;;;;;;7.08;3.08;;;;;;;20.64;46.87;99819.34;1723452;82;21394;-68
2021/06/05 05:00:23;;;;;;;6.42;2.85;;;;;;;20.88;43.83;99818.66;1729569;82;20991;-67
2021/06/05 05:02:50;;;;;;;6.97;2.40;;;;;;;20.92;44.10;99813.25;1723725;82;21071;-68
2021/06/05 05:05:16;;;;;;;5.72;2.40;;;;;;;20.92;43.75;99810.48;1718034;82;20996;-67
2021/06/05 05:07:48;;;;;;;5.95;2.60;;;;;;;20.89;43.21;99808.41;1716882;82;21044;-68
2021/06/05 05:10:19;;;;;;;6.12;2.20;;;;;;;20.80;45.15;99816.76;1734691;82;20991;-69
2021/06/05 05:12:45;;;;;;;6.83;2.65;;;;;;;20.85;43.70;99809.08;1737561;82;21037;-68
2021/06/05 05:15:12;;;;;;;6.33;2.25;;;;;;;20.95;43.02;99807.04;1719390;82;21435;-67
2021/06/05 05:17:39;;;;;;;6.35;2.08;;;;;;;21.04;43.13;99809.98;1729496;82;21514;-68
2021/06/05 05:20:09;;;;;;;11.80;2.55;;;;;;;21.06;42.44;99803.52;1724515;82;21043;-69
2021/06/05 05:22:36;;;;;;;3.65;2.15;;;;;;;20.98;41.82;99798.87;1710202;82;21071;-68
2021/06/05 05:25:03;;;;;;;6.90;1.90;;;;;;;20.99;42.91;99799.11;1710926;82;21468;-66
2021/06/05 05:27:29;;;;;;;5.65;1.72;;;;;;;21.11;41.79;99801.16;1713605;82;21545;-65
2021/06/05 05:29:55;;;;;;;6.80;1.80;;;;;;;21.17;41.51;99802.56;1726586;82;20975;-66
2021/06/05 05:32:22;;;;;;;3.95;1.67;;;;;;;21.17;41.04;99796.45;1716384;82;21039;-66
2021/06/05 05:34:48;;;;;;;3.77;1.50;;;;;;;21.22;40.98;99795.44;1711351;82;20979;-67
2021/06/05 05:37:15;;;;;;;3.65;1.32;;;;;;;21.29;41.54;99791.55;1724956;82;21143;-68
2021/06/05 05:39:44;;;;;;;6.35;1.40;;;;;;;21.34;41.10;99788.55;1729068;82;21435;-68
2021/06/05 05:42:11;;;;;;;4.12;1.72;;;;;;;21.39;41.17;99788.91;1742317;81;21035;-69
2021/06/05 05:44:38;;;;;;;3.90;1.50;;;;;;;21.45;40.21;99789.73;1732869;82;21016;-69
2021/06/05 05:47:04;;;;;;;3.10;1.40;;;;;;;21.50;40.37;99788.71;1719569;82;21038;-66
2021/06/05 05:49:31;;;;;;;3.27;1.50;;;;;;;21.55;40.89;99789.86;1699576;82;21467;-69
2021/06/05 05:51:58;;;;;;;5.50;1.60;;;;;;;21.63;39.92;99787.58;1746639;82;21015;-67
2021/06/05 05:54:24;;;;;;;3.42;1.50;;;;;;;21.67;39.67;99788.51;1747354;82;21446;-68
2021/06/05 05:56:51;;;;;;;3.35;1.45;;;;;;;21.73;39.79;99792.66;1747301;82;21058;-69
2021/06/05 05:59:20;;;;;;;5.22;1.62;;;;;;;21.78;39.00;99792.45;1703143;83;21030;-68
2021/06/05 06:01:46;;;;;;;4.28;1.50;;;;;;;22.00;41.08;99785.69;1718041;82;21043;-67
2021/06/05 06:04:12;;;;;;;3.22;1.60;;;;;;;22.33;39.52;99778.84;1745898;82;21130;-69
2021/06/05 06:06:39;;;;;;;5.80;1.50;;;;;;;22.45;38.58;99775.83;1746675;82;21027;-69
2021/06/05 06:09:05;;;;;;;3.17;1.32;;;;;;;22.53;36.71;99777.06;1743987;82;21517;-68
2021/06/05 06:11:33;;;;;;;6.50;1.70;;;;;;;22.43;37.98;99771.19;1736705;82;21003;-67
2021/06/05 06:14:00;;;;;;;5.62;1.70;;;;;;;22.38;38.69;99771.44;1720163;82;21071;-66
2021/06/05 06:16:27;;;;;;;5.25;1.70;;;;;;;22.48;38.11;99770.38;1736322;82;21019;-67
2021/06/05 06:18:54;;;;;;;4.05;1.70;;;;;;;22.62;39.78;99768.04;1738020;82;21067;-68
2021/06/05 06:21:22;;;;;;;4.03;1.40;;;;;;;22.58;38.13;99766.30;1737345;82;21015;-68
2021/06/05 06:23:49;;;;;;;5.97;1.62;;;;;;;22.49;37.84;99758.72;1725990;82;21143;-69
2021/06/05 06:26:26;;;;;;;4.53;1.62;;;;;;;22.51;38.24;99759.97;1746948;82;21016;-69
2021/06/05 06:28:53;;;;;;;4.10;1.50;;;;;;;22.58;38.60;99757.41;1742196;82;21506;-70
2021/06/05 06:31:21;;;;;;;2.20;1.17;;;;;;;22.70;37.31;99760.20;1733099;82;21401;-68
2021/06/05 06:33:47;;;;;;;2.25;1.12;;;;;;;22.73;37.24;99764.22;1670979;85;21103;-68
2021/06/05 06:36:15;;;;;;;5.03;1.37;;;;;;;22.72;38.18;99767.57;1690954;84;21092;-69
2021/06/05 06:38:44;;;;;;;5.60;1.30;;;;;;;22.74;38.08;99761.69;1682905;85;21076;-68
2021/06/05 06:41:22;;;;;;;5.35;1.47;;;;;;;22.86;37.59;99756.65;1671151;86;21020;-69
2021/06/05 06:43:48;;;;;;;;;;;;;;;22.84;36.97;99757.02;1740807;82;21038;-67
2021/06/05 06:46:21;;;;;;;3.12;1.50;;;;;;;22.75;36.87;99759.12;1747287;82;20121;-69
2021/06/05 06:48:54;;;;;;;4.83;1.10;;;;;;;22.63;38.53;99759.14;1660540;85;21067;-70
2021/06/05 06:51:20;;;;;;;2.40;1.32;;;;;;;22.88;38.16;99763.48;1723378;83;20968;-69
2021/06/05 06:53:47;;;;;;;3.65;1.27;;;;;;;22.91;37.10;99749.47;1724168;82;21083;-68
2021/06/05 06:56:15;;;;;;;3.65;1.27;;;;;;;22.89;37.45;99741.48;1731559;82;21006;-69
2021/06/05 06:58:42;;;;;;;3.67;1.07;;;;;;;22.96;36.24;99740.88;1736073;82;21537;-70
2021/06/05 07:01:11;;;;;;;2.58;1.10;;;;;;;22.97;35.58;99749.44;1736653;82;21070;-69
2021/06/05 07:03:37;;;;;;;3.08;1.07;;;;;;;23.03;36.39;99750.79;1734489;82;21023;-69
2021/06/05 07:06:05;;;;;;;3.67;1.20;;;;;;;22.90;36.19;99748.66;1732658;82;20992;-68
2021/06/05 07:08:34;;;;;;;4.28;1.20;;;;;;;22.87;36.17;99747.98;1738954;82;20995;-69
2021/06/05 07:11:14;;;;;;;4.17;1.27;;;;;;;22.85;36.67;99740.58;1726234;82;21027;-69
2021/06/05 07:13:42;;;;;;;3.50;1.10;;;;;;;22.71;35.77;99738.77;1745931;82;21739;-69
2021/06/05 07:16:10;;;;;;;2.17;1.15;;;;;;;22.69;37.08;99741.92;1749165;82;20964;-70
2021/06/05 07:18:38;;;;;;;3.12;1.20;;;;;;;22.80;35.73;99731.12;1751479;82;21582;-68
2021/06/05 07:21:07;;;;;;;2.92;1.20;;;;;;;22.97;35.54;99730.81;1722858;83;20963;-67
2021/06/05 07:23:35;;;;;;;3.37;1.20;;;;;;;23.02;35.34;99721.44;1721432;83;21051;-67
2021/06/05 07:26:04;;;;;;;6.03;1.10;;;;;;;23.11;35.28;99729.82;1742816;82;20984;-68
2021/06/05 07:28:38;;;;;;;7.78;1.22;;;;;;;23.22;35.86;99728.72;1739965;82;21055;-69
2021/06/05 07:31:05;;;;;;;7.22;1.20;;;;;;;23.33;35.76;99723.45;1721891;82;21046;-68
2021/06/05 07:33:32;;;;;;;5.00;1.80;;;;;;;23.45;35.81;99720.64;1723005;83;21712;-68
2021/06/05 07:36:00;;;;;;;2.92;1.10;;;;;;;23.47;35.67;99726.05;1736556;82;21019;-68
2021/06/05 07:38:27;;;;;;;3.05;1.22;;;;;;;23.40;35.49;99718.08;1752979;82;21102;-69
2021/06/05 07:40:55;;;;;;;4.40;1.37;;;;;;;23.20;36.47;99716.57;1752753;82;21039;-69
2021/06/05 07:43:24;;;;;;;2.52;1.30;;;;;;;23.08;38.77;99707.52;1743702;81;21036;-68
2021/06/05 07:45:51;;;;;;;4.05;1.30;;;;;;;23.27;36.67;99714.01;1712180;82;21023;-68
2021/06/05 07:48:18;;;;;;;5.72;1.20;;;;;;;23.22;36.70;99712.06;1714223;82;21538;-69
2021/06/05 07:50:45;;;;;;;3.20;1.30;;;;;;;22.94;35.97;99698.80;1738707;82;21067;-68
2021/06/05 07:53:11;;;;;;;4.37;1.30;;;;;;;22.85;36.53;99694.00;1738504;82;21047;-68
2021/06/05 07:55:39;;;;;;;3.00;1.22;;;;;;;22.75;37.08;99694.72;1738798;82;21040;-68
2021/06/05 07:58:06;;;;;;;2.17;1.20;;;;;;;22.65;36.99;99695.19;1721397;82;21625;-68
2021/06/05 08:00:35;;;;;;;4.20;1.20;;;;;;;22.62;35.96;99689.55;1709676;84;21094;-68
2021/06/05 08:03:02;;;;;;;5.40;1.22;;;;;;;22.64;35.56;99686.63;1713485;82;20992;-67
2021/06/05 08:05:31;;;;;;;4.22;1.00;;;;;;;22.72;36.29;99689.06;1664138;82;21011;-68
2021/06/05 08:07:59;;;;;;;2.80;0.88;;;;;;;22.82;36.13;99694.11;1715449;82;21106;-67
2021/06/05 08:10:26;;;;;;;2.33;1.15;;;;;;;22.87;36.74;99681.95;1713559;82;21771;-69
2021/06/05 08:12:54;;;;;;;3.33;0.80;;;;;;;22.86;34.01;99678.36;1727471;82;21451;-69
2021/06/05 08:15:26;;;;;;;2.55;0.98;;;;;;;23.05;35.79;99685.44;1732761;82;21070;-68
2021/06/05 08:17:53;;;;;;;2.27;0.95;;;;;;;23.39;34.09;99685.91;1736538;82;20992;-69
2021/06/05 08:20:25;;;;;;;3.70;1.00;;;;;;;23.48;33.81;99682.41;1735045;82;21487;-69
2021/06/05 08:22:56;;;;;;;2.80;0.90;;;;;;;23.34;33.85;99677.28;1696437;84;21047;-69
2021/06/05 08:25:25;;;;;;;2.33;1.00;;;;;;;23.39;34.21;99678.38;1734627;82;21522;-69
2021/06/05 08:27:51;;;;;;;2.70;1.30;;;;;;;23.43;33.96;99677.92;1739033;82;21036;-69
2021/06/05 08:30:24;;;;;;;2.87;1.02;;;;;;;23.33;34.37;99680.41;1730397;82;20968;-69
2021/06/05 08:32:50;;;;;;;2.58;1.17;;;;;;;23.10;34.61;99678.22;1723313;82;21051;-69
2021/06/05 08:35:17;;;;;;;2.75;1.10;;;;;;;23.05;35.90;99672.14;1723490;82;21395;-69
2021/06/05 08:37:43;;;;;;;5.00;1.00;;;;;;;23.05;34.35;99670.17;1723329;82;21613;-69
2021/06/05 08:40:13;;;;;;;5.70;1.02;;;;;;;23.12;33.27;99673.14;1723147;82;21027;-68
2021/06/05 08:42:47;;;;;;;9.18;1.30;;;;;;;23.24;32.66;99663.90;1730552;81;21047;-70
2021/06/05 08:45:11;;;;;;;7.03;1.30;;;;;;;23.28;33.25;99660.06;1738890;82;21042;-69
2021/06/05 08:47:38;;;;;;;4.92;0.82;;;;;;;23.25;33.85;99658.00;1737250;82;21131;-67
2021/06/05 08:50:15;;;;;;;2.33;1.00;;;;;;;23.07;33.57;99656.73;1734135;82;21514;-68
2021/06/05 08:52:56;;;;;;;4.62;1.10;;;;;;;22.94;34.33;99666.88;1733478;82;21023;-68
2021/06/05 08:55:39;;;;;;;7.05;1.70;;;;;;;22.95;34.40;99663.76;1739071;82;21402;-68
2021/06/05 08:58:28;;;;;;;5.42;1.07;;;;;;;23.11;34.06;99651.27;1738694;82;21082;-69
2021/06/05 09:01:20;;;;;;;2.92;1.05;;;;;;;23.29;32.28;99650.56;1738050;82;20999;-69
2021/06/05 09:03:52;;;;;;;2.17;1.00;;;;;;;23.47;33.07;99646.06;1706426;82;21577;-67
2021/06/05 09:06:23;;;;;;;3.42;1.10;;;;;;;23.54;33.73;99641.49;1740043;82;21018;-68
2021/06/05 09:08:49;;;;;;;3.65;0.90;;;;;;;23.45;34.15;99640.89;1737264;82;21518;-68
2021/06/05 09:11:17;;;;;;;2.72;1.00;;;;;;;23.40;34.44;99652.80;1673023;85;21059;-68
2021/06/05 09:13:45;;;;;;;4.28;1.32;;;;;;;23.31;34.23;99648.23;1736694;82;20991;-68
2021/06/05 09:16:23;;;;;;;3.27;1.52;;;;;;;23.30;34.33;99648.02;1736282;82;21466;-68
2021/06/05 09:19:04;;;;;;;1.92;1.00;;;;;;;23.42;34.19;99643.58;1737298;82;21608;-68
2021/06/05 09:21:48;;;;;;;1.98;0.80;;;;;;;23.70;33.85;99640.09;1736065;82;21011;-68
2021/06/05 09:24:52;;;;;;;4.45;1.00;;;;;;;24.04;31.98;99637.89;1736197;82;21015;-68
2021/06/05 09:27:22;;;;;;;4.33;1.02;;;;;;;24.27;31.38;99633.83;1735972;82;21131;-67
2021/06/05 09:30:11;;;;;;;2.55;1.02;;;;;;;24.51;30.94;99634.15;1736337;82;21044;-69
2021/06/05 09:32:57;;;;;;;2.95;1.00;;;;;;;24.58;30.29;99632.31;1726246;82;21046;-66
2021/06/05 09:35:29;;;;;;;4.78;0.80;;;;;;;24.20;31.01;99631.70;1737457;82;21391;-68
2021/06/05 09:38:16;;;;;;;2.15;1.10;;;;;;;23.80;31.45;99629.80;1735739;82;21007;-67
2021/06/05 09:41:06;;;;;;;3.92;1.10;;;;;;;23.57;33.49;99644.94;1736769;82;20944;-67
2021/06/05 09:43:34;;;;;;;3.12;1.20;;;;;;;23.42;33.71;99629.69;1729365;82;21700;-67
2021/06/05 09:46:23;;;;;;;3.85;1.45;;;;;;;23.41;32.98;99622.48;1722677;82;21008;-67
2021/06/05 09:48:52;;;;;;;4.03;1.22;;;;;;;23.47;33.03;99625.23;1723707;82;21082;-68
2021/06/05 09:51:40;;;;;;;3.45;1.00;;;;;;;23.64;34.22;99629.02;1723195;82;21573;-67
2021/06/05 09:54:16;;;;;;;2.02;0.90;;;;;;;23.86;31.65;99624.76;1723173;82;21047;-67
2021/06/05 09:56:45;;;;;;;3.65;1.00;;;;;;;23.94;31.22;99620.39;1703078;82;21023;-67
2021/06/05 09:59:20;;;;;;;4.15;1.17;;;;;;;24.11;32.54;99614.99;1722975;82;21090;-67
2021/06/05 10:02:09;;;;;;;3.08;0.80;;;;;;;24.26;31.81;99608.02;1709959;82;21031;-67
2021/06/05 10:04:37;;;;;;;4.75;1.37;;;;;;;24.39;30.06;99600.90;1724812;82;21379;-66
2021/06/05 10:07:27;;;;;;;3.05;1.00;;;;;;;24.33;31.31;99598.20;1721159;82;21028;-67
2021/06/05 10:10:16;;;;;;;3.02;1.52;;;;;;;24.32;32.70;99601.56;1722448;82;20997;-67
2021/06/05 10:12:42;;;;;;;4.22;1.10;;;;;;;24.27;32.83;99604.63;1724583;82;21047;-68
2021/06/05 10:15:15;;;;;;;2.10;0.90;;;;;;;24.14;31.80;99612.32;1723047;82;20995;-67
2021/06/05 10:17:58;;;;;;;2.40;0.90;;;;;;;23.53;32.87;99601.55;1723428;82;21020;-67
2021/06/05 10:20:56;;;;;;;3.42;1.20;;;;;;;23.53;32.87;99601.55;1723349;82;20972;-67
2021/06/05 10:23:29;;;;;;;4.40;1.40;;;;;;;23.28;32.94;99603.70;1723529;82;21114;-67
2021/06/05 10:26:00;;;;;;;6.08;1.05;;;;;;;23.27;32.81;99599.34;1721117;82;21082;-70
2021/06/05 10:28:38;;;;;;;2.20;1.07;;;;;;;23.39;33.93;99595.63;1722528;82;21070;-67
2021/06/05 10:31:14;;;;;;;3.52;1.30;;;;;;;23.60;33.33;99600.33;1725425;82;21534;-68
2021/06/05 10:33:51;;;;;;;2.87;1.12;;;;;;;23.88;33.41;99594.64;1720958;82;21086;-66
2021/06/05 10:36:24;;;;;;;3.87;1.15;;;;;;;24.12;32.75;99597.95;1649200;86;21031;-66
2021/06/05 10:39:09;;;;;;;7.28;1.00;;;;;;;24.19;32.68;99595.94;1725261;82;21086;-67
2021/06/05 10:41:39;;;;;;;3.15;0.90;;;;;;;24.06;32.36;99591.05;1689040;84;21670;-68
2021/06/05 10:44:06;;;;;;;5.58;0.90;;;;;;;23.89;31.33;99587.31;1649057;86;21063;-66
2021/06/05 10:46:44;;;;;;;6.03;1.30;;;;;;;23.60;32.24;99583.66;1722706;82;21031;-68
2021/06/05 10:49:41;;;;;;;2.67;1.10;;;;;;;23.38;32.99;99582.35;1723502;82;21056;-69
2021/06/05 10:52:25;;;;;;;2.02;0.80;;;;;;;23.24;32.38;99581.98;1725069;82;21558;-67
2021/06/05 10:54:56;;;;;;;5.45;0.90;;;;;;;23.09;33.34;99596.70;1723108;82;21530;-68
2021/06/05 10:57:31;;;;;;;2.17;0.88;;;;;;;22.95;33.79;99592.17;1724219;82;20988;-67
2021/06/05 11:00:00;;;;;;;3.67;1.10;;;;;;;22.90;34.66;99597.39;1721265;82;21016;-68
2021/06/05 11:02:46;;;;;;;2.33;1.00;;;;;;;22.81;34.75;99596.77;1724172;82;21051;-67
2021/06/05 11:05:27;;;;;;;3.62;1.15;;;;;;;22.78;35.14;99591.91;1720008;82;20952;-67
2021/06/05 11:08:16;;;;;;;7.08;1.10;;;;;;;22.81;35.80;99589.83;1706982;82;21012;-69
2021/06/05 11:11:03;;;;;;;2.55;1.20;;;;;;;22.76;35.23;99584.53;1703734;82;21052;-66
2021/06/05 11:13:41;;;;;;;3.83;1.35;;;;;;;22.76;34.62;99589.50;1723328;82;21035;-67
2021/06/05 11:16:17;;;;;;;3.80;1.12;;;;;;;22.64;33.70;99594.27;1722868;82;20995;-66
2021/06/05 11:19:00;;;;;;;3.92;1.12;;;;;;;22.60;34.59;99590.01;1722872;82;22340;-67
2021/06/05 11:21:41;;;;;;;3.25;1.45;;;;;;;22.70;34.87;99587.34;1724049;82;20964;-67
2021/06/05 11:24:20;;;;;;;3.42;1.42;;;;;;;22.94;36.42;99583.03;1681676;82;21108;-70
2021/06/05 11:26:51;;;;;;;4.92;1.75;;;;;;;23.26;35.16;99587.99;1723555;82;21565;-70
2021/06/05 11:29:32;;;;;;;4.80;1.30;;;;;;;23.30;33.62;99579.98;1719959;82;21537;-69
2021/06/05 11:32:22;;;;;;;4.20;1.00;;;;;;;23.36;34.15;99582.47;1723625;82;21035;-69
2021/06/05 11:34:54;;;;;;;3.02;1.20;;;;;;;23.40;33.51;99577.80;1723199;82;20988;-69
2021/06/05 11:37:38;;;;;;;2.45;1.17;;;;;;;23.47;32.00;99578.00;1722721;82;21515;-68
2021/06/05 11:40:08;;;;;;;3.12;1.00;;;;;;;23.55;33.75;99573.66;1725997;82;21051;-68
2021/06/05 11:42:49;;;;;;;4.55;1.42;;;;;;;23.82;31.44;99576.03;1723064;82;21087;-67
2021/06/05 11:45:28;;;;;;;4.10;1.10;;;;;;;23.86;31.72;99574.14;1729110;81;21499;-67
2021/06/05 11:47:54;;;;;;;3.52;0.90;;;;;;;23.81;31.03;99575.80;1730101;82;21412;-68
2021/06/05 11:50:32;;;;;;;3.22;1.00;;;;;;;23.81;32.38;99566.69;1729681;82;21037;-65
2021/06/05 11:53:29;;;;;;;4.97;1.10;;;;;;;23.94;31.24;99559.23;1731699;82;21058;-66
2021/06/05 11:58:32;;;;;;;3.80;1.37;;;;;;;23.98;31.48;99550.97;1782996;79;22784;-67